createdAt,value
2018-03-17T00:01:08.692Z,0.80
2018-03-17T00:03:37.062Z,0.70
2018-03-17T00:06:05.424Z,0.70
2018-03-17T00:08:34.594Z,0.60
2018-03-17T00:11:02.949Z,0.60
2018-03-17T00:13:31.780Z,0.60
2018-03-17T00:16:00.120Z,0.70
2018-03-17T00:18:28.689Z,0.70
2018-03-17T00:20:57.053Z,0.70
2018-03-17T00:23:25.392Z,0.60
2018-03-17T00:25:53.759Z,0.60
2018-03-17T00:28:22.112Z,0.60
2018-03-17T00:30:50.570Z,0.60
2018-03-17T00:33:19.320Z,0.60
2018-03-17T00:35:47.704Z,0.60
2018-03-17T00:38:16.228Z,0.50
2018-03-17T00:40:44.625Z,0.50
2018-03-17T00:43:12.996Z,0.50
2018-03-17T00:45:41.343Z,0.50
2018-03-17T00:48:10.047Z,0.50
2018-03-17T00:50:38.396Z,0.40
2018-03-17T00:53:06.790Z,0.40
2018-03-17T00:55:35.170Z,0.40
2018-03-17T00:58:03.515Z,0.40
2018-03-17T01:00:32.642Z,0.40
2018-03-17T01:03:00.796Z,0.40
2018-03-17T01:05:29.760Z,0.40
2018-03-17T01:07:58.398Z,0.40
2018-03-17T01:10:26.748Z,0.40
2018-03-17T01:12:55.870Z,0.50
2018-03-17T01:15:24.211Z,0.50
2018-03-17T01:17:53.336Z,0.60
2018-03-17T01:20:21.741Z,0.50
2018-03-17T01:22:50.135Z,0.50
2018-03-17T01:25:18.524Z,0.50
2018-03-17T01:27:46.956Z,0.50
2018-03-17T01:30:16.268Z,0.40
2018-03-17T01:32:44.607Z,0.60
2018-03-17T01:35:13.736Z,0.60
2018-03-17T01:37:42.871Z,0.70
2018-03-17T01:40:11.246Z,0.70
2018-03-17T01:42:39.637Z,0.80
2018-03-17T01:45:07.981Z,0.70
2018-03-17T01:47:36.355Z,0.60
2018-03-17T01:50:04.056Z,0.50
2018-03-17T01:52:33.223Z,0.60
2018-03-17T01:55:01.573Z,0.60
2018-03-17T01:57:30.429Z,0.60
2018-03-17T01:59:59.546Z,0.60
2018-03-17T02:02:27.898Z,0.60
2018-03-17T02:04:57.477Z,0.50
2018-03-17T02:07:26.589Z,0.40
2018-03-17T02:09:55.017Z,0.40
2018-03-17T02:12:23.377Z,0.50
2018-03-17T02:14:51.748Z,0.50
2018-03-17T02:17:20.870Z,0.30
2018-03-17T02:19:49.223Z,0.30
2018-03-17T02:22:18.367Z,0.30
2018-03-17T02:24:46.910Z,0.30
2018-03-17T02:27:15.553Z,0.40
2018-03-17T02:29:44.189Z,0.40
2018-03-17T02:32:12.943Z,0.40
2018-03-17T02:34:42.071Z,0.30
2018-03-17T02:37:10.627Z,0.30
2018-03-17T02:39:39.762Z,0.30
2018-03-17T02:42:09.156Z,0.20
2018-03-17T02:44:37.513Z,0.20
2018-03-17T02:47:05.865Z,0.20
2018-03-17T02:49:35.006Z,0.20
2018-03-17T02:52:03.373Z,0.20
2018-03-17T02:54:31.729Z,0.30
2018-03-17T02:57:00.868Z,0.20
2018-03-17T02:59:29.213Z,0.20
2018-03-17T03:01:58.345Z,0.20
2018-03-17T03:04:26.703Z,0.20
2018-03-17T03:06:55.066Z,0.10
2018-03-17T03:09:23.438Z,0.20
2018-03-17T03:11:52.540Z,0.20
2018-03-17T03:14:20.904Z,0.20
2018-03-17T03:16:50.022Z,0.20
2018-03-17T03:19:18.371Z,0.20
2018-03-17T03:21:47.869Z,0.20
2018-03-17T03:24:16.224Z,0.30
2018-03-17T03:26:44.597Z,0.30
2018-03-17T03:29:12.957Z,0.30
2018-03-17T03:31:41.312Z,0.30
2018-03-17T03:34:09.693Z,0.20
2018-03-17T03:36:38.083Z,0.20
2018-03-17T03:39:06.452Z,0.30
2018-03-17T03:41:34.850Z,0.30
2018-03-17T03:44:04.123Z,0.30
2018-03-17T03:46:32.484Z,0.30
2018-03-17T03:49:01.108Z,0.20
2018-03-17T03:51:29.473Z,0.20
2018-03-17T03:53:57.815Z,0.20
2018-03-17T03:58:56.313Z,0.20
2018-03-17T04:01:24.960Z,0.20
2018-03-17T04:03:53.348Z,0.10
2018-03-17T04:06:21.955Z,0.10
2018-03-17T04:08:50.760Z,0.10
2018-03-17T04:11:19.399Z,0.00
2018-03-17T04:13:48.026Z,0.00
2018-03-17T04:16:16.667Z,0.00
2018-03-17T04:18:45.996Z,0.10
2018-03-17T04:21:14.945Z,0.10
2018-03-17T04:23:43.316Z,0.10
2018-03-17T04:26:11.661Z,0.00
2018-03-17T04:28:40.431Z,0.00
2018-03-17T04:31:09.546Z,0.00
2018-03-17T04:33:37.900Z,0.00
2018-03-17T04:36:06.552Z,0.10
2018-03-17T04:38:34.902Z,0.10
2018-03-17T04:41:03.258Z,0.10
2018-03-17T04:43:31.646Z,0.10
2018-03-17T04:46:00.017Z,0.10
2018-03-17T04:48:29.253Z,0.00
2018-03-17T04:50:57.791Z,0.00
2018-03-17T04:53:26.411Z,-0.10
2018-03-17T04:55:54.773Z,-0.10
2018-03-17T04:58:23.169Z,-0.10
2018-03-17T05:00:52.572Z,-0.20
2018-03-17T05:03:21.046Z,-0.20
2018-03-17T05:05:50.467Z,-0.30
2018-03-17T05:08:19.094Z,-0.30
2018-03-17T05:10:47.737Z,-0.30
2018-03-17T05:13:16.408Z,-0.40
2018-03-17T05:15:44.893Z,-0.40
2018-03-17T05:18:13.524Z,-0.40
2018-03-17T05:20:42.758Z,-0.30
2018-03-17T05:23:11.115Z,-0.40
2018-03-17T05:25:39.778Z,-0.40
2018-03-17T05:28:08.881Z,-0.40
2018-03-17T05:30:37.512Z,-0.40
2018-03-17T05:33:06.905Z,-0.40
2018-03-17T05:35:35.289Z,-0.50
2018-03-17T05:38:04.692Z,-0.60
2018-03-17T05:40:33.147Z,-0.60
2018-03-17T05:43:01.784Z,-0.50
2018-03-17T05:45:30.408Z,-0.50
2018-03-17T05:47:59.045Z,-0.50
2018-03-17T05:50:27.700Z,-0.60
2018-03-17T05:52:57.091Z,-0.60
2018-03-17T05:55:25.710Z,-0.70
2018-03-17T05:57:54.639Z,-0.60
2018-03-17T06:00:23.271Z,-0.60
2018-03-17T06:02:52.690Z,-0.60
2018-03-17T06:05:21.334Z,-0.60
2018-03-17T06:07:49.691Z,-0.60
2018-03-17T06:10:18.316Z,-0.60
2018-03-17T06:12:46.697Z,-0.60
2018-03-17T06:15:16.082Z,-0.80
2018-03-17T06:17:44.757Z,-0.80
2018-03-17T06:20:13.426Z,-0.80
2018-03-17T06:22:42.074Z,-0.70
2018-03-17T06:25:10.713Z,-0.70
2018-03-17T06:27:39.354Z,-0.70
2018-03-17T06:30:07.983Z,-0.70
2018-03-17T06:32:36.686Z,-0.80
2018-03-17T06:35:06.116Z,-0.80
2018-03-17T06:37:34.814Z,-0.80
2018-03-17T06:40:03.446Z,-0.90
2018-03-17T06:42:32.096Z,-0.90
2018-03-17T06:45:00.765Z,-0.90
2018-03-17T06:47:29.418Z,-0.90
2018-03-17T06:49:58.723Z,-0.90
2018-03-17T06:52:27.497Z,-0.90
2018-03-17T06:54:56.901Z,-1.10
2018-03-17T06:57:26.316Z,-1.10
2018-03-17T06:59:54.940Z,-1.20
2018-03-17T07:02:23.584Z,-1.10
2018-03-17T07:04:52.239Z,-1.20
2018-03-17T07:07:21.674Z,-1.10
2018-03-17T07:09:50.321Z,-1.20
2018-03-17T07:12:19.035Z,-1.10
2018-03-17T07:14:47.618Z,-1.10
2018-03-17T07:17:16.885Z,-1.10
2018-03-17T07:19:46.424Z,-1.10
2018-03-17T07:22:15.182Z,-1.20
2018-03-17T07:24:43.839Z,-1.00
2018-03-17T07:27:12.484Z,-0.90
2018-03-17T07:29:41.141Z,-1.00
2018-03-17T07:32:10.528Z,-0.90
2018-03-17T07:34:39.202Z,-0.90
2018-03-17T07:37:07.847Z,-0.90
2018-03-17T07:39:36.478Z,-0.80
2018-03-17T07:42:05.125Z,-0.90
2018-03-17T07:44:33.745Z,-1.00
2018-03-17T07:47:02.376Z,-1.00
2018-03-17T07:49:31.150Z,-1.10
2018-03-17T07:52:00.584Z,-1.10
2018-03-17T07:54:29.220Z,-1.10
2018-03-17T07:56:57.876Z,-1.10
2018-03-17T07:59:26.496Z,-1.00
2018-03-17T08:01:55.944Z,-1.10
2018-03-17T08:04:24.592Z,-1.10
2018-03-17T08:06:53.214Z,-1.10
2018-03-17T08:09:21.850Z,-1.10
2018-03-17T08:11:50.505Z,-1.20
2018-03-17T08:14:19.156Z,-1.20
2018-03-17T08:16:47.796Z,-1.20
2018-03-17T08:19:16.694Z,-1.10
2018-03-17T08:21:46.787Z,-1.30
2018-03-17T08:24:16.173Z,-1.20
2018-03-17T08:26:44.931Z,-1.30
2018-03-17T08:29:13.569Z,-1.30
2018-03-17T08:31:42.213Z,-1.40
2018-03-17T08:34:10.927Z,-1.30
2018-03-17T08:36:40.494Z,-1.30
2018-03-17T08:39:09.577Z,-1.30
2018-03-17T08:41:39.010Z,-1.30
2018-03-17T08:44:07.656Z,-1.30
2018-03-17T08:46:37.101Z,-1.50
2018-03-17T08:49:05.743Z,-1.40
2018-03-17T08:51:35.248Z,-1.40
2018-03-17T08:54:04.693Z,-1.40
2018-03-17T08:56:33.333Z,-1.50
2018-03-17T08:59:02.757Z,-1.40
2018-03-17T09:01:31.398Z,-1.40
2018-03-17T09:04:00.087Z,-1.40
2018-03-17T09:06:28.708Z,-1.30
2018-03-17T09:08:57.471Z,-1.30
2018-03-17T09:11:26.899Z,-1.30
2018-03-17T09:13:55.594Z,-1.30
2018-03-17T09:16:24.393Z,-1.30
2018-03-17T09:18:53.315Z,-1.30
2018-03-17T09:21:21.949Z,-1.20
2018-03-17T09:23:50.584Z,-1.20
2018-03-17T09:26:19.237Z,-1.10
2018-03-17T09:28:47.876Z,-1.00
2018-03-17T09:31:16.539Z,-1.00
2018-03-17T09:33:47.009Z,-1.10
2018-03-17T09:36:15.680Z,-1.20
2018-03-17T09:38:45.086Z,-1.20
2018-03-17T09:41:14.506Z,-1.20
2018-03-17T09:43:43.131Z,-1.30
2018-03-17T09:46:11.763Z,-1.30
2018-03-17T09:48:41.187Z,-1.30
2018-03-17T09:51:09.822Z,-1.30
2018-03-17T09:53:38.472Z,-1.30
2018-03-17T09:56:07.132Z,-1.30
2018-03-17T09:58:35.795Z,-1.30
2018-03-17T10:01:05.475Z,-1.40
2018-03-17T10:03:34.128Z,-1.50
2018-03-17T10:06:02.783Z,-1.40
2018-03-17T10:08:31.406Z,-1.40
2018-03-17T10:11:00.458Z,-1.50
2018-03-17T10:13:29.199Z,-1.50
2018-03-17T10:15:57.843Z,-1.50
2018-03-17T10:18:27.246Z,-1.50
2018-03-17T10:20:55.897Z,-1.40
2018-03-17T10:25:54.054Z,-1.50
2018-03-17T10:28:22.697Z,-1.60
2018-03-17T10:30:51.340Z,-1.50
2018-03-17T10:33:20.276Z,-1.50
2018-03-17T10:35:48.899Z,-1.60
2018-03-17T10:38:17.519Z,-1.60
2018-03-17T10:40:46.166Z,-1.40
2018-03-17T10:43:14.618Z,-1.60
2018-03-17T10:45:43.244Z,-1.60
2018-03-17T10:48:11.921Z,-1.60
2018-03-17T10:50:40.582Z,-1.60
2018-03-17T10:53:09.203Z,-1.60
2018-03-17T10:55:37.882Z,-1.60
2018-03-17T10:58:06.325Z,-1.60
2018-03-17T11:00:34.751Z,-1.50
2018-03-17T11:03:04.163Z,-1.40
2018-03-17T11:05:32.585Z,-1.50
2018-03-17T11:08:01.025Z,-1.50
2018-03-17T11:10:29.992Z,-1.50
2018-03-17T11:12:58.654Z,-1.50
2018-03-17T11:15:27.291Z,-1.50
2018-03-17T11:17:56.716Z,-1.60
2018-03-17T11:20:25.368Z,-1.60
2018-03-17T11:22:54.781Z,-1.50
2018-03-17T11:25:23.611Z,-1.60
2018-03-17T11:27:52.260Z,-1.50
2018-03-17T11:30:21.691Z,-1.50
2018-03-17T11:32:50.697Z,-1.50
2018-03-17T11:35:19.165Z,-1.60
2018-03-17T11:37:48.926Z,-1.60
2018-03-17T11:40:18.366Z,-1.70
2018-03-17T11:42:47.064Z,-1.70
2018-03-17T11:45:15.683Z,-1.70
2018-03-17T11:47:44.334Z,-1.70
2018-03-17T11:50:12.987Z,-1.60
2018-03-17T11:52:41.639Z,-1.70
2018-03-17T11:55:10.299Z,-1.70
2018-03-17T11:57:38.930Z,-1.60
2018-03-17T12:00:07.794Z,-1.80
2018-03-17T12:02:36.451Z,-1.80
2018-03-17T12:05:05.446Z,-1.80
2018-03-17T12:07:34.139Z,-1.70
2018-03-17T12:10:03.157Z,-1.70
2018-03-17T12:12:31.786Z,-1.60
2018-03-17T12:15:00.440Z,-1.60
2018-03-17T12:17:29.860Z,-1.60
2018-03-17T12:19:58.489Z,-1.60
2018-03-17T12:22:27.138Z,-1.60
2018-03-17T12:24:56.814Z,-1.60
2018-03-17T12:27:25.516Z,-1.50
2018-03-17T12:29:54.954Z,-1.50
2018-03-17T12:32:23.600Z,-1.50
2018-03-17T12:34:52.998Z,-1.50
2018-03-17T12:37:21.625Z,-1.50
2018-03-17T12:39:50.518Z,-1.50
2018-03-17T12:42:19.260Z,-1.60
2018-03-17T12:44:47.692Z,-1.50
2018-03-17T12:47:16.331Z,-1.60
2018-03-17T12:49:45.907Z,-1.50
2018-03-17T12:52:14.531Z,-1.50
2018-03-17T12:54:43.177Z,-1.50
2018-03-17T12:57:11.840Z,-1.70
2018-03-17T12:59:40.462Z,-1.70
2018-03-17T13:02:09.096Z,-1.60
2018-03-17T13:04:37.729Z,-1.50
2018-03-17T13:07:07.111Z,-1.30
2018-03-17T13:09:35.764Z,-1.40
2018-03-17T13:12:04.378Z,-1.60
2018-03-17T13:14:33.005Z,-1.70
2018-03-17T13:17:02.398Z,-1.70
2018-03-17T13:19:30.933Z,-1.80
2018-03-17T13:21:59.556Z,-1.80
2018-03-17T13:24:28.225Z,-1.80
2018-03-17T13:27:07.914Z,-1.90
2018-03-17T13:29:36.834Z,-1.90
2018-03-17T13:32:04.781Z,-1.90
2018-03-17T13:34:33.733Z,-1.80
2018-03-17T13:37:13.542Z,-1.80
2018-03-17T13:39:42.223Z,-1.80
2018-03-17T13:42:10.840Z,-1.80
2018-03-17T13:44:39.482Z,-1.90
2018-03-17T13:47:08.254Z,-2.00
2018-03-17T13:49:36.869Z,-2.00
2018-03-17T13:52:05.508Z,-1.90
2018-03-17T13:54:34.132Z,-2.10
2018-03-17T13:57:02.779Z,-2.00
2018-03-17T13:59:31.584Z,-2.00
2018-03-17T14:02:00.226Z,-2.00
2018-03-17T14:04:28.673Z,-2.00
2018-03-17T14:06:57.305Z,-1.90
2018-03-17T14:09:26.697Z,-2.00
2018-03-17T14:11:56.097Z,-2.10
2018-03-17T14:14:25.607Z,-2.00
2018-03-17T14:16:55.849Z,-1.90
2018-03-17T14:19:24.484Z,-1.90
2018-03-17T14:21:53.453Z,-2.00
2018-03-17T14:24:22.065Z,-2.00
2018-03-17T14:26:50.714Z,-2.00
2018-03-17T14:29:19.357Z,-2.00
2018-03-17T14:31:48.743Z,-2.00
2018-03-17T14:34:18.152Z,-2.00
2018-03-17T14:36:47.663Z,-2.00
2018-03-17T14:39:17.078Z,-2.00
2018-03-17T14:41:45.716Z,-2.00
2018-03-17T14:44:15.133Z,-1.70
2018-03-17T14:46:43.826Z,-1.80
2018-03-17T14:49:12.596Z,-1.70
2018-03-17T14:51:41.255Z,-1.70
2018-03-17T14:54:09.883Z,-1.70
2018-03-17T14:56:39.276Z,-1.80
2018-03-17T14:59:07.920Z,-1.80
2018-03-17T15:01:36.535Z,-1.90
2018-03-17T15:04:05.220Z,-2.00
2018-03-17T15:06:35.092Z,-2.00
2018-03-17T15:09:03.186Z,-2.00
2018-03-17T15:11:31.816Z,-2.00
2018-03-17T15:14:01.254Z,-2.10
2018-03-17T15:16:29.903Z,-2.10
2018-03-17T15:18:59.307Z,-2.00
2018-03-17T15:21:28.716Z,-1.90
2018-03-17T15:23:57.382Z,-1.90
2018-03-17T15:26:26.812Z,-2.00
2018-03-17T15:28:56.442Z,-2.00
2018-03-17T15:31:25.060Z,-2.00
2018-03-17T15:33:53.777Z,-2.00
2018-03-17T15:36:22.867Z,-2.10
2018-03-17T15:38:52.278Z,-2.30
2018-03-17T15:41:21.692Z,-2.40
2018-03-17T15:43:51.079Z,-2.40
2018-03-17T15:46:20.576Z,-2.40
2018-03-17T15:48:49.260Z,-2.50
2018-03-17T15:51:18.701Z,-2.60
2018-03-17T15:53:47.343Z,-2.60
2018-03-17T15:56:16.093Z,-2.50
2018-03-17T15:58:44.838Z,-2.50
2018-03-17T16:01:13.458Z,-2.60
2018-03-17T16:03:42.097Z,-2.60
2018-03-17T16:06:11.510Z,-2.60
2018-03-17T16:08:40.141Z,-2.60
2018-03-17T16:11:08.767Z,-2.60
2018-03-17T16:13:38.633Z,-2.60
2018-03-17T16:16:08.078Z,-2.60
2018-03-17T16:18:37.537Z,-2.60
2018-03-17T16:21:06.169Z,-2.60
2018-03-17T16:23:35.606Z,-2.60
2018-03-17T16:26:04.597Z,-2.60
2018-03-17T16:28:33.210Z,-2.60
2018-03-17T16:31:01.862Z,-2.60
2018-03-17T16:33:30.211Z,-2.60
2018-03-17T16:35:59.603Z,-2.60
2018-03-17T16:38:29.020Z,-2.60
2018-03-17T16:40:58.432Z,-2.60
2018-03-17T16:43:28.012Z,-2.60
2018-03-17T16:45:57.471Z,-2.60
2018-03-17T16:48:25.957Z,-2.70
2018-03-17T16:50:54.610Z,-2.60
2018-03-17T16:53:23.263Z,-2.60
2018-03-17T16:55:51.732Z,-2.60
2018-03-17T16:58:20.432Z,-2.70
2018-03-17T17:00:49.849Z,-2.80
2018-03-17T17:03:19.297Z,-2.80
2018-03-17T17:05:48.846Z,-2.80
2018-03-17T17:08:17.467Z,-2.90
2018-03-17T17:10:45.940Z,-2.80
2018-03-17T17:13:14.561Z,-2.70
2018-03-17T17:15:43.188Z,-2.60
2018-03-17T17:18:12.686Z,-2.80
2018-03-17T17:20:42.073Z,-2.70
2018-03-17T17:23:10.714Z,-2.70
2018-03-17T17:25:39.602Z,-2.80
2018-03-17T17:28:08.226Z,-2.90
2018-03-17T17:30:36.838Z,-2.80
2018-03-17T17:33:06.250Z,-2.70
2018-03-17T17:35:34.856Z,-2.70
2018-03-17T17:38:03.473Z,-2.60
2018-03-17T17:40:32.193Z,-2.70
2018-03-17T17:43:01.611Z,-2.70
2018-03-17T17:45:30.272Z,-2.70
2018-03-17T17:47:59.704Z,-2.90
2018-03-17T17:50:28.337Z,-2.90
2018-03-17T17:52:56.956Z,-2.90
2018-03-17T17:55:25.894Z,-2.90
2018-03-17T17:57:54.557Z,-2.90
2018-03-17T18:00:23.185Z,-2.90
2018-03-17T18:02:51.824Z,-2.80
2018-03-17T18:05:20.432Z,-2.90
2018-03-17T18:07:49.070Z,-2.90
2018-03-17T18:10:18.501Z,-2.90
2018-03-17T18:12:47.126Z,-2.90
2018-03-17T18:15:15.736Z,-2.90
2018-03-17T18:17:45.164Z,-2.90
2018-03-17T18:20:13.782Z,-3.00
2018-03-17T18:22:42.407Z,-2.90
2018-03-17T18:25:11.869Z,-2.90
2018-03-17T18:27:40.489Z,-3.00
2018-03-17T18:30:09.893Z,-2.80
2018-03-17T18:32:38.711Z,-2.90
2018-03-17T18:35:07.337Z,-3.00
2018-03-17T18:37:36.137Z,-3.00
2018-03-17T18:40:04.805Z,-3.00
2018-03-17T18:42:33.471Z,-3.00
2018-03-17T18:45:02.087Z,-3.00
2018-03-17T18:47:31.497Z,-3.00
2018-03-17T18:50:00.901Z,-3.00
2018-03-17T18:52:30.285Z,-3.00
2018-03-17T18:54:58.975Z,-3.00
2018-03-17T18:57:27.624Z,-3.00
2018-03-17T18:59:56.256Z,-3.10
2018-03-17T19:02:25.671Z,-3.10
2018-03-17T19:04:55.078Z,-3.10
2018-03-17T19:07:23.708Z,-3.10
2018-03-17T19:09:52.710Z,-3.10
2018-03-17T19:12:21.376Z,-3.10
2018-03-17T19:14:49.989Z,-3.10
2018-03-17T19:17:18.697Z,-3.00
2018-03-17T19:19:48.204Z,-3.20
2018-03-17T19:22:17.666Z,-3.20
2018-03-17T19:24:46.307Z,-3.20
2018-03-17T19:27:14.932Z,-3.20
2018-03-17T19:29:43.579Z,-3.30
2018-03-17T19:32:12.244Z,-3.20
2018-03-17T19:34:41.676Z,-3.10
2018-03-17T19:37:10.302Z,-3.10
2018-03-17T19:39:38.976Z,-3.20
2018-03-17T19:42:07.609Z,-3.10
2018-03-17T19:44:37.055Z,-3.10
2018-03-17T19:47:05.712Z,-3.10
2018-03-17T19:49:34.375Z,-3.10
2018-03-17T19:52:03.170Z,-3.10
2018-03-17T19:54:32.781Z,-3.10
2018-03-17T19:57:01.396Z,-3.10
2018-03-17T19:59:30.023Z,-3.20
2018-03-17T20:01:59.468Z,-3.20
2018-03-17T20:04:28.120Z,-3.20
2018-03-17T20:06:57.509Z,-3.20
2018-03-17T20:09:26.166Z,-3.20
2018-03-17T20:11:54.795Z,-3.20
2018-03-17T20:14:24.187Z,-3.20
2018-03-17T20:16:53.609Z,-3.20
2018-03-17T20:19:22.233Z,-3.20
2018-03-17T20:21:50.681Z,-3.20
2018-03-17T20:24:19.324Z,-3.20
2018-03-17T20:26:47.954Z,-3.10
2018-03-17T20:29:16.564Z,-3.10
2018-03-17T20:31:45.976Z,-3.30
2018-03-17T20:34:14.596Z,-3.30
2018-03-17T20:36:43.981Z,-3.30
2018-03-17T20:39:12.661Z,-3.30
2018-03-17T20:41:41.365Z,-3.20
2018-03-17T20:44:11.069Z,-3.20
2018-03-17T20:46:40.659Z,-3.20
2018-03-17T20:49:09.307Z,-3.30
2018-03-17T20:51:37.952Z,-3.30
2018-03-17T20:54:07.390Z,-3.20
2018-03-17T20:56:36.015Z,-3.30
2018-03-17T20:59:04.713Z,-3.30
2018-03-17T21:01:33.337Z,-3.20
2018-03-17T21:04:01.962Z,-3.20
2018-03-17T21:06:30.589Z,-3.20
2018-03-17T21:09:00.013Z,-3.30
2018-03-17T21:11:28.659Z,-3.30
2018-03-17T21:13:58.045Z,-3.20
2018-03-17T21:16:26.716Z,-3.20
2018-03-17T21:18:55.373Z,-3.20
2018-03-17T21:21:23.884Z,-3.20
2018-03-17T21:23:52.508Z,-3.30
2018-03-17T21:26:21.920Z,-3.30
2018-03-17T21:28:50.540Z,-3.30
2018-03-17T21:31:19.992Z,-3.40
2018-03-17T21:33:49.429Z,-3.30
2018-03-17T21:36:17.772Z,-3.30
2018-03-17T21:38:46.764Z,-3.30
2018-03-17T21:41:16.169Z,-3.30
2018-03-17T21:43:45.583Z,-3.10
2018-03-17T21:46:14.989Z,-3.30
2018-03-17T21:48:44.383Z,-3.30
2018-03-17T21:51:13.053Z,-3.30
2018-03-17T21:53:42.488Z,-3.20
2018-03-17T21:56:11.246Z,-3.20
2018-03-17T21:58:39.863Z,-3.10
2018-03-17T22:01:08.173Z,-3.20
2018-03-17T22:03:36.840Z,-3.20
2018-03-17T22:06:04.810Z,-3.20
2018-03-17T22:08:33.476Z,-3.30
2018-03-17T22:11:02.163Z,-3.30
2018-03-17T22:13:31.126Z,-3.30
2018-03-17T22:16:00.557Z,-3.30
2018-03-17T22:18:29.204Z,-3.30
2018-03-17T22:20:57.821Z,-3.40
2018-03-17T22:23:26.444Z,-3.30
2018-03-17T22:25:55.069Z,-3.30
2018-03-17T22:28:23.694Z,-3.30
2018-03-17T22:30:52.369Z,-3.20
2018-03-17T22:33:21.013Z,-3.20
2018-03-17T22:35:49.661Z,-3.20
2018-03-17T22:38:18.300Z,-3.20
2018-03-17T22:40:47.717Z,-3.20
2018-03-17T22:43:16.427Z,-3.20
2018-03-17T22:45:45.122Z,-3.20
2018-03-17T22:48:13.757Z,-3.20
2018-03-17T22:50:43.185Z,-3.20
2018-03-17T22:53:11.894Z,-3.20
2018-03-17T22:55:40.537Z,-3.20
2018-03-17T22:58:09.218Z,-3.30
2018-03-17T23:00:37.492Z,-3.30
2018-03-17T23:03:06.542Z,-3.30
2018-03-17T23:05:35.168Z,-3.30
2018-03-17T23:08:03.496Z,-3.30
2018-03-17T23:10:32.120Z,-3.30
2018-03-17T23:13:00.770Z,-3.30
2018-03-17T23:15:29.434Z,-3.20
2018-03-17T23:17:58.066Z,-3.20
2018-03-17T23:20:27.500Z,-3.30
2018-03-17T23:22:56.111Z,-3.30
2018-03-17T23:25:24.757Z,-3.20
2018-03-17T23:27:53.373Z,-3.30
2018-03-17T23:30:21.884Z,-3.30
2018-03-17T23:32:50.549Z,-3.30
2018-03-17T23:35:19.211Z,-3.30
2018-03-17T23:37:48.080Z,-3.30
2018-03-17T23:40:16.535Z,-3.30
2018-03-17T23:42:45.748Z,-3.20
2018-03-17T23:45:14.196Z,-3.20
2018-03-17T23:47:43.629Z,-3.30
2018-03-17T23:50:12.800Z,-3.30
2018-03-17T23:52:41.239Z,-3.30
2018-03-17T23:55:09.685Z,-3.30
2018-03-17T23:57:39.081Z,-3.30
